createdAt,value
2017-12-06T00:00:35.148Z,18.33
2017-12-06T00:03:03.453Z,20.53
2017-12-06T00:05:31.654Z,19.40
2017-12-06T00:07:59.508Z,14.60
2017-12-06T00:10:27.028Z,20.33
2017-12-06T00:15:56.418Z,15.47
2017-12-06T00:18:23.924Z,15.30
2017-12-06T00:20:51.508Z,16.67
2017-12-06T00:23:19.952Z,15.33
2017-12-06T00:25:47.477Z,16.70
2017-12-06T00:28:15.007Z,19.27
2017-12-06T00:30:43.341Z,18.07
2017-12-06T00:33:10.861Z,18.23
2017-12-06T00:35:38.372Z,16.23
2017-12-06T00:38:07.405Z,17.40
2017-12-06T00:40:35.252Z,16.20
2017-12-06T00:43:03.600Z,17.47
2017-12-06T00:45:32.096Z,19.07
2017-12-06T00:47:59.612Z,18.87
2017-12-06T00:50:27.139Z,16.27
2017-12-06T00:52:54.646Z,15.20
2017-12-06T00:55:22.879Z,13.57
2017-12-06T00:57:52.801Z,15.67
2017-12-06T01:00:21.040Z,20.23
2017-12-06T01:02:48.544Z,18.03
2017-12-06T01:05:17.325Z,19.60
2017-12-06T01:07:44.844Z,19.70
2017-12-06T01:10:12.363Z,18.20
2017-12-06T01:12:40.271Z,17.93
2017-12-06T01:15:07.790Z,17.23
2017-12-06T01:17:36.971Z,18.20
2017-12-06T01:20:06.123Z,19.47
2017-12-06T01:22:34.838Z,17.70
2017-12-06T01:25:03.176Z,21.43
2017-12-06T01:27:32.383Z,19.47
2017-12-06T01:29:59.903Z,16.77
2017-12-06T01:32:27.483Z,16.47
2017-12-06T01:34:55.307Z,19.50
2017-12-06T01:37:22.867Z,19.33
2017-12-06T01:39:50.761Z,16.43
2017-12-06T01:42:19.124Z,16.40
2017-12-06T01:44:46.650Z,16.33
2017-12-06T01:47:14.741Z,19.70
2017-12-06T01:49:42.264Z,23.63
2017-12-06T01:52:09.789Z,22.63
2017-12-06T01:54:37.987Z,24.07
2017-12-06T01:57:05.527Z,21.93
2017-12-06T01:59:33.053Z,22.93
2017-12-06T02:02:01.361Z,23.27
2017-12-06T02:04:28.889Z,22.43
2017-12-06T02:06:56.403Z,22.47
2017-12-06T02:09:23.929Z,23.63
2017-12-06T02:11:51.436Z,21.47
2017-12-06T02:14:19.538Z,20.40
2017-12-06T02:16:47.054Z,21.00
2017-12-06T02:19:14.569Z,21.80
2017-12-06T02:21:42.089Z,20.63
2017-12-06T02:24:15.851Z,20.03
2017-12-06T02:26:43.360Z,25.63
2017-12-06T02:29:11.583Z,22.43
2017-12-06T02:31:39.106Z,21.60
2017-12-06T02:34:07.883Z,20.37
2017-12-06T02:36:35.848Z,20.70
2017-12-06T02:39:04.128Z,22.07
2017-12-06T02:41:43.453Z,19.90
2017-12-06T02:44:23.021Z,17.57
2017-12-06T02:46:50.538Z,17.40
2017-12-06T02:49:18.064Z,20.43
2017-12-06T02:51:45.585Z,25.03
2017-12-06T02:54:13.096Z,19.43
2017-12-06T02:56:40.612Z,18.50
2017-12-06T02:59:08.154Z,19.83
2017-12-06T03:01:35.691Z,18.90
2017-12-06T03:04:03.232Z,17.23
2017-12-06T03:06:30.766Z,19.50
2017-12-06T03:08:58.332Z,19.00
2017-12-06T03:11:25.855Z,19.20
2017-12-06T03:13:54.078Z,17.80
2017-12-06T03:16:21.590Z,17.00
2017-12-06T03:18:49.122Z,20.20
2017-12-06T03:21:16.649Z,22.10
2017-12-06T03:23:45.016Z,19.27
2017-12-06T03:26:13.906Z,18.50
2017-12-06T03:28:41.436Z,18.00
2017-12-06T03:31:09.026Z,17.67
2017-12-06T03:33:36.517Z,18.80
2017-12-06T03:36:04.032Z,17.70
2017-12-06T03:38:31.556Z,22.90
2017-12-06T03:40:59.095Z,18.83
2017-12-06T03:43:26.629Z,21.53
2017-12-06T03:45:54.166Z,19.40
2017-12-06T03:48:22.326Z,20.00
2017-12-06T03:50:49.865Z,21.93
2017-12-06T03:53:17.664Z,18.57
2017-12-06T03:55:45.182Z,18.77
2017-12-06T03:58:12.734Z,19.60
2017-12-06T04:00:40.280Z,21.83
2017-12-06T04:03:07.797Z,22.37
2017-12-06T04:05:35.318Z,19.20
2017-12-06T04:08:02.841Z,20.93
2017-12-06T04:10:30.363Z,20.80
2017-12-06T04:12:57.894Z,25.13
2017-12-06T04:15:26.198Z,19.27
2017-12-06T04:17:55.699Z,22.03
2017-12-06T04:20:25.713Z,20.80
2017-12-06T04:22:54.657Z,24.10
2017-12-06T04:25:22.221Z,20.27
2017-12-06T04:27:50.652Z,22.57
2017-12-06T04:30:21.547Z,21.53
2017-12-06T04:32:49.075Z,21.80
2017-12-06T04:35:16.592Z,26.53
2017-12-06T04:37:45.679Z,20.37
2017-12-06T04:40:13.382Z,21.23
2017-12-06T04:42:42.019Z,21.87
2017-12-06T04:45:11.310Z,20.97
2017-12-06T04:47:38.886Z,21.73
2017-12-06T04:50:07.207Z,20.77
2017-12-06T04:52:34.733Z,22.17
2017-12-06T04:55:02.251Z,20.70
2017-12-06T04:57:29.790Z,17.70
2017-12-06T04:59:57.313Z,20.10
2017-12-06T05:02:24.855Z,19.83
2017-12-06T05:04:52.382Z,19.43
2017-12-06T05:07:19.904Z,21.83
2017-12-06T05:09:47.462Z,21.37
2017-12-06T05:12:14.992Z,22.93
2017-12-06T05:14:42.532Z,21.10
2017-12-06T05:17:10.079Z,23.97
2017-12-06T05:19:37.601Z,24.93
2017-12-06T05:22:05.824Z,21.77
2017-12-06T05:24:33.333Z,23.57
2017-12-06T05:27:01.660Z,23.13
2017-12-06T05:29:29.186Z,24.03
2017-12-06T05:31:56.710Z,23.80
2017-12-06T05:34:24.236Z,22.17
2017-12-06T05:36:51.764Z,23.80
2017-12-06T05:39:19.292Z,22.43
2017-12-06T05:41:46.812Z,21.20
2017-12-06T05:44:14.321Z,23.30
2017-12-06T05:46:43.516Z,24.93
2017-12-06T05:49:11.073Z,20.30
2017-12-06T05:51:39.300Z,25.47
2017-12-06T05:54:06.828Z,22.67
2017-12-06T05:56:34.625Z,23.57
2017-12-06T05:59:02.155Z,21.27
2017-12-06T06:01:29.673Z,26.10
2017-12-06T06:03:57.209Z,21.00
2017-12-06T06:06:24.767Z,18.23
2017-12-06T06:08:53.078Z,19.83
2017-12-06T06:11:20.601Z,19.73
2017-12-06T06:13:50.206Z,19.90
2017-12-06T06:16:17.729Z,19.67
2017-12-06T06:18:45.262Z,20.33
2017-12-06T06:21:12.791Z,18.70
2017-12-06T06:23:40.306Z,19.03
2017-12-06T06:26:07.895Z,21.53
2017-12-06T06:28:35.393Z,18.47
2017-12-06T06:31:02.948Z,17.50
2017-12-06T06:33:30.490Z,19.93
2017-12-06T06:35:58.802Z,18.10
2017-12-06T06:38:26.357Z,18.27
2017-12-06T06:40:53.901Z,17.00
2017-12-06T06:43:21.433Z,21.17
2017-12-06T06:45:48.969Z,19.67
2017-12-06T06:48:16.493Z,16.93
2017-12-06T06:50:44.020Z,18.93
2017-12-06T06:53:11.552Z,18.77
2017-12-06T06:55:39.071Z,17.67
2017-12-06T06:58:06.610Z,18.03
2017-12-06T07:00:34.452Z,20.57
2017-12-06T07:03:01.976Z,19.90
2017-12-06T07:05:29.514Z,20.37
2017-12-06T07:07:57.045Z,19.20
2017-12-06T07:10:24.569Z,16.33
2017-12-06T07:12:52.095Z,22.47
2017-12-06T07:15:22.412Z,20.73
2017-12-06T07:17:49.942Z,17.80
2017-12-06T07:20:17.462Z,21.20
2017-12-06T07:22:44.993Z,19.00
2017-12-06T07:25:12.518Z,17.43
2017-12-06T07:27:40.035Z,20.90
2017-12-06T07:30:08.485Z,22.03
2017-12-06T07:32:36.003Z,25.77
2017-12-06T07:35:03.518Z,21.43
2017-12-06T07:37:32.431Z,22.90
2017-12-06T07:40:00.561Z,19.50
2017-12-06T07:42:28.083Z,23.83
2017-12-06T07:44:56.302Z,19.83
2017-12-06T07:47:24.769Z,19.93
2017-12-06T07:49:52.308Z,25.47
2017-12-06T07:52:19.836Z,23.97
2017-12-06T07:54:47.355Z,21.10
2017-12-06T07:57:16.013Z,25.53
2017-12-06T07:59:43.567Z,26.03
2017-12-06T08:02:11.101Z,24.23
2017-12-06T08:04:39.358Z,23.97
2017-12-06T08:07:06.894Z,22.50
2017-12-06T08:09:34.418Z,27.03
2017-12-06T08:12:02.972Z,22.57
2017-12-06T08:14:30.521Z,22.93
2017-12-06T08:16:58.811Z,23.63
2017-12-06T08:19:26.723Z,21.13
2017-12-06T08:21:54.242Z,23.00
2017-12-06T08:24:23.028Z,22.77
2017-12-06T08:26:51.180Z,23.00
2017-12-06T08:29:18.996Z,24.87
2017-12-06T08:31:47.007Z,23.37
2017-12-06T08:34:14.610Z,23.07
2017-12-06T08:36:43.022Z,21.13
2017-12-06T08:39:10.878Z,26.20
2017-12-06T08:41:39.158Z,26.60
2017-12-06T08:44:08.094Z,23.60
2017-12-06T08:46:35.774Z,23.60
2017-12-06T08:49:04.734Z,20.00
2017-12-06T08:51:32.354Z,21.90
2017-12-06T08:53:59.896Z,20.87
2017-12-06T08:56:27.412Z,20.33
2017-12-06T08:58:54.936Z,22.17
2017-12-06T09:01:22.597Z,25.73
2017-12-06T09:03:51.224Z,23.47
2017-12-06T09:06:19.320Z,22.17
2017-12-06T09:08:46.844Z,21.07
2017-12-06T09:11:14.700Z,21.10
2017-12-06T09:13:42.235Z,20.87
2017-12-06T09:16:09.759Z,22.07
2017-12-06T09:18:37.309Z,20.90
2017-12-06T09:21:06.231Z,18.90
2017-12-06T09:23:34.143Z,19.90
2017-12-06T09:26:02.448Z,21.73
2017-12-06T09:28:30.003Z,22.90
2017-12-06T09:30:57.540Z,19.37
2017-12-06T09:33:25.929Z,21.37
2017-12-06T09:35:53.859Z,19.97
2017-12-06T09:38:22.815Z,20.33
2017-12-06T09:40:51.273Z,21.87
2017-12-06T09:43:19.365Z,22.93
2017-12-06T09:45:47.175Z,21.00
2017-12-06T09:48:14.687Z,19.43
2017-12-06T09:50:43.378Z,19.23
2017-12-06T09:53:12.289Z,18.40
2017-12-06T09:55:39.810Z,17.37
2017-12-06T09:58:07.324Z,22.23
2017-12-06T10:00:35.605Z,19.00
2017-12-06T10:03:03.170Z,19.03
2017-12-06T10:05:30.740Z,18.67
2017-12-06T10:07:58.977Z,19.23
2017-12-06T10:10:26.564Z,17.20
2017-12-06T10:12:55.963Z,17.43
2017-12-06T10:15:23.485Z,18.27
2017-12-06T10:17:51.245Z,18.50
2017-12-06T10:20:18.760Z,19.37
2017-12-06T10:22:46.269Z,20.00
2017-12-06T10:25:13.794Z,16.47
2017-12-06T10:27:44.291Z,21.13
2017-12-06T10:32:53.000Z,17.30
2017-12-06T10:35:20.518Z,19.20
2017-12-06T10:37:48.424Z,17.87
2017-12-06T10:40:15.945Z,16.67
2017-12-06T10:42:45.783Z,17.20
2017-12-06T10:45:13.388Z,19.77
2017-12-06T10:47:51.408Z,17.07
2017-12-06T10:50:19.854Z,18.97
2017-12-06T10:52:47.901Z,14.83
2017-12-06T10:55:16.906Z,19.23
2017-12-06T10:57:46.699Z,15.83
2017-12-06T11:00:14.718Z,17.33
2017-12-06T11:02:42.250Z,20.13
2017-12-06T11:05:10.392Z,18.47
2017-12-06T11:07:37.922Z,15.57
2017-12-06T11:10:06.171Z,18.03
2017-12-06T11:12:33.717Z,16.97
2017-12-06T11:15:01.308Z,19.80
2017-12-06T11:17:28.827Z,17.57
2017-12-06T11:19:56.407Z,16.40
2017-12-06T11:22:23.993Z,15.70
2017-12-06T11:24:51.550Z,16.03
2017-12-06T11:27:19.083Z,17.67
2017-12-06T11:29:47.072Z,18.20
2017-12-06T11:32:14.610Z,19.00
2017-12-06T11:34:42.399Z,14.87
2017-12-06T11:37:10.795Z,18.77
2017-12-06T11:39:39.675Z,18.20
2017-12-06T11:42:07.202Z,17.43
2017-12-06T11:44:35.269Z,17.77
2017-12-06T11:47:16.496Z,18.20
2017-12-06T11:49:52.981Z,19.97
2017-12-06T11:52:20.519Z,17.77
2017-12-06T11:54:48.344Z,18.23
2017-12-06T11:57:15.869Z,18.67
2017-12-06T11:59:43.424Z,16.57
2017-12-06T12:02:12.970Z,17.47
2017-12-06T12:04:41.161Z,23.87
2017-12-06T12:07:10.441Z,18.23
2017-12-06T12:09:39.064Z,19.37
2017-12-06T12:12:07.439Z,17.70
2017-12-06T12:14:39.121Z,19.93
2017-12-06T12:17:07.549Z,19.13
2017-12-06T12:19:37.958Z,16.63
2017-12-06T12:22:06.850Z,18.43
2017-12-06T12:24:34.593Z,17.57
2017-12-06T12:27:02.118Z,20.27
2017-12-06T12:29:29.658Z,17.47
2017-12-06T12:31:58.538Z,20.37
2017-12-06T12:34:26.068Z,20.57
2017-12-06T12:36:54.097Z,20.17
2017-12-06T12:39:22.441Z,21.27
2017-12-06T12:41:49.987Z,19.37
2017-12-06T12:44:18.667Z,19.47
2017-12-06T12:49:20.054Z,19.50
2017-12-06T12:51:48.126Z,17.90
2017-12-06T12:54:15.662Z,20.60
2017-12-06T12:56:44.157Z,21.33
2017-12-06T12:59:11.679Z,22.43
2017-12-06T13:01:39.457Z,18.20
2017-12-06T13:04:07.014Z,20.77
2017-12-06T13:06:34.547Z,20.47
2017-12-06T13:09:02.089Z,23.03
2017-12-06T13:11:29.609Z,17.57
2017-12-06T13:13:57.181Z,20.63
2017-12-06T13:16:24.713Z,23.03
2017-12-06T13:18:52.288Z,21.00
2017-12-06T13:21:19.814Z,22.03
2017-12-06T13:23:47.320Z,21.00
2017-12-06T13:26:14.858Z,22.17
2017-12-06T13:28:42.392Z,23.60
2017-12-06T13:31:14.206Z,24.40
2017-12-06T13:33:41.729Z,20.73
2017-12-06T13:36:09.252Z,22.70
2017-12-06T13:38:36.805Z,21.87
2017-12-06T13:41:05.324Z,24.80
2017-12-06T13:43:32.851Z,21.40
2017-12-06T13:46:00.397Z,21.03
2017-12-06T13:48:28.468Z,22.93
2017-12-06T13:50:55.989Z,19.20
2017-12-06T13:53:23.520Z,20.37
2017-12-06T13:55:53.450Z,19.17
2017-12-06T13:58:20.962Z,17.43
2017-12-06T14:00:48.518Z,15.73
2017-12-06T14:03:16.456Z,20.50
2017-12-06T14:05:44.336Z,17.67
2017-12-06T14:08:11.860Z,19.63
2017-12-06T14:10:41.186Z,19.67
2017-12-06T14:13:09.665Z,14.20
2017-12-06T14:15:38.101Z,17.87
2017-12-06T14:18:05.618Z,17.43
2017-12-06T14:20:33.185Z,17.20
2017-12-06T14:23:00.718Z,18.20
2017-12-06T14:25:28.232Z,16.73
2017-12-06T14:27:56.482Z,16.80
2017-12-06T14:30:24.747Z,15.07
2017-12-06T14:32:52.256Z,13.63
2017-12-06T14:35:19.777Z,16.33
2017-12-06T14:37:47.622Z,15.57
2017-12-06T14:40:17.497Z,13.97
2017-12-06T14:42:46.707Z,17.73
2017-12-06T14:45:14.231Z,16.53
2017-12-06T14:47:41.764Z,15.83
2017-12-06T14:50:09.315Z,16.10
2017-12-06T14:52:37.371Z,18.33
2017-12-06T14:55:04.917Z,20.03
2017-12-06T14:57:33.922Z,16.10
2017-12-06T15:00:01.441Z,17.63
2017-12-06T15:02:28.968Z,14.20
2017-12-06T15:04:58.856Z,16.48
2017-12-06T15:07:26.377Z,15.40
2017-12-06T15:09:54.900Z,13.90
2017-12-06T15:12:22.432Z,16.53
2017-12-06T15:14:49.957Z,13.53
2017-12-06T15:17:17.488Z,18.60
2017-12-06T15:19:45.383Z,15.90
2017-12-06T15:22:12.900Z,16.00
2017-12-06T15:24:40.433Z,18.90
2017-12-06T15:27:08.412Z,19.73
2017-12-06T15:29:36.114Z,16.33
2017-12-06T15:32:03.714Z,17.23
2017-12-06T15:34:31.639Z,16.73
2017-12-06T15:36:59.582Z,17.93
2017-12-06T15:39:27.686Z,18.57
2017-12-06T15:41:55.215Z,17.70
2017-12-06T15:44:22.736Z,21.10
2017-12-06T15:46:50.257Z,17.73
2017-12-06T15:49:17.781Z,16.83
2017-12-06T15:51:45.359Z,18.87
2017-12-06T15:54:12.837Z,18.43
2017-12-06T15:56:40.463Z,15.57
2017-12-06T15:59:07.994Z,14.73
2017-12-06T16:01:35.508Z,19.50
2017-12-06T16:04:03.934Z,16.23
2017-12-06T16:06:31.452Z,19.57
2017-12-06T16:08:58.985Z,17.03
2017-12-06T16:11:28.246Z,15.30
2017-12-06T16:13:55.766Z,17.00
2017-12-06T16:16:28.441Z,15.97
2017-12-06T16:18:56.661Z,17.50
2017-12-06T16:21:24.194Z,15.93
2017-12-06T16:23:51.711Z,12.50
2017-12-06T16:26:19.546Z,12.90
2017-12-06T16:28:47.071Z,17.10
2017-12-06T16:31:14.593Z,12.37
2017-12-06T16:33:42.109Z,12.33
2017-12-06T16:36:21.849Z,14.53
2017-12-06T16:38:49.361Z,13.27
2017-12-06T16:41:16.883Z,11.47
2017-12-06T16:43:44.401Z,12.70
2017-12-06T16:46:12.768Z,13.73
2017-12-06T16:48:40.313Z,13.13
2017-12-06T16:51:07.898Z,11.50
2017-12-06T16:53:38.982Z,12.50
2017-12-06T16:56:07.388Z,11.30
2017-12-06T16:58:34.919Z,10.50
2017-12-06T17:01:02.453Z,14.50
2017-12-06T17:03:29.980Z,11.60
2017-12-06T17:05:57.501Z,10.47
2017-12-06T17:08:25.030Z,10.90
2017-12-06T17:10:52.590Z,9.17
2017-12-06T17:13:20.100Z,10.90
2017-12-06T17:15:47.623Z,12.53
2017-12-06T17:18:15.139Z,10.37
2017-12-06T17:20:42.674Z,11.60
2017-12-06T17:23:10.184Z,9.33
2017-12-06T17:25:37.693Z,8.63
2017-12-06T17:28:05.229Z,11.20
2017-12-06T17:30:44.681Z,10.90
2017-12-06T17:33:12.200Z,9.63
2017-12-06T17:35:40.054Z,9.60
2017-12-06T17:38:08.551Z,10.93
2017-12-06T17:40:36.063Z,10.10
2017-12-06T17:43:04.573Z,8.67
2017-12-06T17:45:32.694Z,9.83
2017-12-06T17:48:00.922Z,9.20
2017-12-06T17:50:29.230Z,9.27
2017-12-06T17:52:57.633Z,13.80
2017-12-06T17:55:25.981Z,8.50
2017-12-06T17:57:53.531Z,10.33
2017-12-06T18:00:22.111Z,9.23
2017-12-06T18:02:49.645Z,8.07
2017-12-06T18:05:17.193Z,10.07
2017-12-06T18:07:46.736Z,8.47
2017-12-06T18:10:14.295Z,9.23
2017-12-06T18:12:42.886Z,11.57
2017-12-06T18:15:10.403Z,11.40
2017-12-06T18:17:39.672Z,9.03
2017-12-06T18:20:08.951Z,9.90
2017-12-06T18:22:36.814Z,7.97
2017-12-06T18:25:04.785Z,11.17
2017-12-06T18:27:32.781Z,8.73
2017-12-06T18:30:00.311Z,9.83
2017-12-06T18:32:28.164Z,11.50
2017-12-06T18:34:55.684Z,8.77
2017-12-06T18:37:23.199Z,8.77
2017-12-06T18:39:50.712Z,10.17
2017-12-06T18:42:18.230Z,10.73
2017-12-06T18:44:45.728Z,9.20
2017-12-06T18:47:13.260Z,8.90
2017-12-06T18:49:40.790Z,10.07
2017-12-06T18:52:08.305Z,14.47
2017-12-06T18:54:35.866Z,10.10
2017-12-06T18:57:03.395Z,8.60
2017-12-06T18:59:30.928Z,10.13
2017-12-06T19:01:58.772Z,9.33
2017-12-06T19:04:26.338Z,11.90
2017-12-06T19:06:53.843Z,13.80
2017-12-06T19:09:24.150Z,12.93
2017-12-06T19:11:52.100Z,11.30
2017-12-06T19:14:19.619Z,13.73
2017-12-06T19:16:47.418Z,12.17
2017-12-06T19:19:15.744Z,7.90
2017-12-06T19:21:43.475Z,7.97
2017-12-06T19:24:10.989Z,10.00
2017-12-06T19:26:38.507Z,8.83
2017-12-06T19:29:06.021Z,9.67
2017-12-06T19:31:37.742Z,7.77
2017-12-06T19:34:05.563Z,8.30
2017-12-06T19:36:34.192Z,9.43
2017-12-06T19:39:03.233Z,7.07
2017-12-06T19:41:37.170Z,7.87
2017-12-06T19:44:04.742Z,10.00
2017-12-06T19:46:32.284Z,7.83
2017-12-06T19:48:59.893Z,9.33
2017-12-06T19:51:27.430Z,10.10
2017-12-06T19:53:55.772Z,9.97
2017-12-06T19:58:57.207Z,9.67
2017-12-06T20:01:24.731Z,8.57
2017-12-06T20:03:53.822Z,10.27
2017-12-06T20:06:22.209Z,8.57
2017-12-06T20:08:49.752Z,10.73
2017-12-06T20:11:17.319Z,9.17
2017-12-06T20:13:44.846Z,11.00
2017-12-06T20:16:12.396Z,12.87
2017-12-06T20:18:41.402Z,8.07
2017-12-06T20:21:10.257Z,11.17
2017-12-06T20:23:38.160Z,11.00
2017-12-06T20:26:06.411Z,12.03
2017-12-06T20:28:33.944Z,10.87
2017-12-06T20:31:01.473Z,9.23
2017-12-06T20:33:33.168Z,12.87
2017-12-06T20:36:00.674Z,10.50
2017-12-06T20:38:28.188Z,10.63
2017-12-06T20:40:55.697Z,10.13
2017-12-06T20:43:23.262Z,11.57
2017-12-06T20:45:54.015Z,11.90
2017-12-06T20:48:21.584Z,11.27
2017-12-06T20:50:49.105Z,9.90
2017-12-06T20:53:17.449Z,9.63
2017-12-06T20:55:44.964Z,9.10
2017-12-06T20:58:14.136Z,9.50
2017-12-06T21:00:41.655Z,12.80
2017-12-06T21:03:11.038Z,10.80
2017-12-06T21:05:39.380Z,10.17
2017-12-06T21:08:06.899Z,8.20
2017-12-06T21:10:35.036Z,8.90
2017-12-06T21:13:02.553Z,10.20
2017-12-06T21:15:33.024Z,9.17
2017-12-06T21:18:01.570Z,11.43
2017-12-06T21:20:29.923Z,11.80
2017-12-06T21:22:58.073Z,9.67
2017-12-06T21:25:27.181Z,11.53
2017-12-06T21:27:55.301Z,10.93
2017-12-06T21:30:22.808Z,9.20
2017-12-06T21:32:50.670Z,11.40
2017-12-06T21:35:18.210Z,9.87
2017-12-06T21:37:49.073Z,12.13
2017-12-06T21:40:20.414Z,11.00
2017-12-06T21:42:48.057Z,9.70
2017-12-06T21:45:16.524Z,12.07
2017-12-06T21:47:47.939Z,9.33
2017-12-06T21:50:17.302Z,8.73
2017-12-06T21:52:45.713Z,9.97
2017-12-06T21:55:13.813Z,9.47
2017-12-06T21:57:44.064Z,9.70
2017-12-06T22:00:12.291Z,12.17
2017-12-06T22:02:39.909Z,10.97
2017-12-06T22:05:07.563Z,8.57
2017-12-06T22:07:35.275Z,11.70
2017-12-06T22:10:04.320Z,10.33
2017-12-06T22:12:35.848Z,8.80
2017-12-06T22:15:03.556Z,10.90
2017-12-06T22:17:32.812Z,7.83
2017-12-06T22:20:03.031Z,9.27
2017-12-06T22:22:30.710Z,8.73
2017-12-06T22:24:58.392Z,9.23
2017-12-06T22:27:26.241Z,9.10
2017-12-06T22:29:54.637Z,8.67
2017-12-06T22:32:22.259Z,8.93
2017-12-06T22:34:50.910Z,8.10
2017-12-06T22:37:18.454Z,10.27
2017-12-06T22:39:46.112Z,8.77
2017-12-06T22:42:13.789Z,11.37
2017-12-06T22:44:41.473Z,8.30
2017-12-06T22:47:09.959Z,10.03
2017-12-06T22:49:37.611Z,10.60
2017-12-06T22:52:05.185Z,8.87
2017-12-06T22:54:32.724Z,9.13
2017-12-06T22:57:00.261Z,7.73
2017-12-06T22:59:28.741Z,7.70
2017-12-06T23:01:56.318Z,8.47
2017-12-06T23:04:23.853Z,9.40
2017-12-06T23:06:52.201Z,8.43
2017-12-06T23:09:22.711Z,11.03
2017-12-06T23:11:50.259Z,9.73
2017-12-06T23:14:17.799Z,9.40
2017-12-06T23:16:45.341Z,7.70
2017-12-06T23:19:12.861Z,10.00
2017-12-06T23:21:40.387Z,9.90
2017-12-06T23:24:07.941Z,7.00
2017-12-06T23:26:35.476Z,9.00
2017-12-06T23:29:03.688Z,6.27
2017-12-06T23:31:33.315Z,7.93
2017-12-06T23:34:01.881Z,7.50
2017-12-06T23:36:29.782Z,9.03
2017-12-06T23:38:58.055Z,7.03
2017-12-06T23:41:25.577Z,8.57
2017-12-06T23:43:53.108Z,7.57
2017-12-06T23:46:20.642Z,9.07
2017-12-06T23:48:48.177Z,8.87
2017-12-06T23:51:16.492Z,8.37
2017-12-06T23:53:44.598Z,9.40
2017-12-06T23:56:12.174Z,8.67
2017-12-06T23:58:39.898Z,8.90
